Time;durP1;ratioP1;P1;durP2;ratioP2;P2;SDS_P1;SDS_P2;PMS_P1;PMS_P2;Temp;Humidity;BMP_temperature;BMP_pressure;BME280_temperature;BME280_humidity;BME280_pressure;Samples;Min_cycle;Max_cycle;Signal;HPM_P1;HPM_P2
2021/03/02 00:01:47;;;;;;;9.07;4.30;;;5.50;99.90;;;;;;6725258;88;20157;-79
2021/03/02 00:11:49;;;;;;;9.10;4.37;;;5.30;99.90;;;;;;6726119;88;20205;-79
2021/03/02 00:21:56;;;;;;;8.10;4.28;;;5.10;99.90;;;;;;6729624;88;20181;-79
2021/03/02 00:31:57;;;;;;;7.78;3.85;;;4.70;99.90;;;;;;6727290;88;20179;-79
2021/03/02 00:41:58;;;;;;;9.10;4.47;;;5.10;99.90;;;;;;6727022;88;20196;-79
2021/03/02 00:51:58;;;;;;;10.25;4.72;;;4.70;99.90;;;;;;6726708;88;20195;-78
2021/03/02 01:01:59;;;;;;;8.63;4.00;;;4.50;99.90;;;;;;6731033;88;21061;-81
2021/03/02 01:12:00;;;;;;;8.30;3.90;;;4.40;99.90;;;;;;6724696;88;20508;-79
2021/03/02 01:22:01;;;;;;;9.40;4.10;;;4.30;99.90;;;;;;6714193;88;20191;-79
2021/03/02 01:32:02;;;;;;;7.55;3.53;;;4.10;99.90;;;;;;6708347;88;20190;-77
2021/03/02 01:42:03;;;;;;;8.68;4.10;;;4.10;99.90;;;;;;6718876;88;20353;-77
2021/03/02 01:52:03;;;;;;;10.18;4.20;;;3.70;99.90;;;;;;6714320;88;20266;-79
2021/03/02 02:02:06;;;;;;;7.53;3.80;;;3.70;99.90;;;;;;6717229;88;20189;-80
2021/03/02 02:12:39;;;;;;;9.38;4.12;;;3.90;99.90;;;;;;6709502;88;20275;-79
2021/03/02 02:22:58;;;;;;;10.48;4.10;;;3.70;99.90;;;;;;6713170;88;20203;-79
2021/03/02 02:33:00;;;;;;;9.52;4.15;;;3.60;99.90;;;;;;6713272;88;20211;-79
2021/03/02 02:43:02;;;;;;;10.48;4.72;;;3.60;99.90;;;;;;6711312;88;20404;-77
2021/03/02 02:53:04;;;;;;;9.45;4.55;;;3.20;99.90;;;;;;6712430;88;20716;-77
2021/03/02 03:03:07;;;;;;;9.80;4.15;;;3.20;99.90;;;;;;6715273;88;20254;-77
2021/03/02 03:13:12;;;;;;;9.98;4.20;;;3.10;99.90;;;;;;6710762;88;20210;-77
2021/03/02 03:23:14;;;;;;;8.32;4.00;;;3.10;99.90;;;;;;6711600;88;20203;-77
2021/03/02 03:33:17;;;;;;;11.60;4.55;;;2.90;99.90;;;;;;6714272;88;20235;-78
2021/03/02 03:43:18;;;;;;;10.88;3.95;;;2.80;99.90;;;;;;6713072;88;20207;-78
2021/03/02 03:53:20;;;;;;;16.05;5.53;;;2.70;99.90;;;;;;6710838;88;20197;-80
2021/03/02 04:03:25;;;;;;;11.88;5.30;;;2.60;99.90;;;;;;6708745;88;20223;-77
2021/03/02 04:13:26;;;;;;;10.43;4.57;;;2.50;99.90;;;;;;6708543;88;20264;-78
2021/03/02 04:23:27;;;;;;;10.57;5.15;;;2.40;99.90;;;;;;6713827;88;20189;-78
2021/03/02 04:33:28;;;;;;;11.07;5.37;;;2.50;99.90;;;;;;6711990;88;20228;-79
2021/03/02 04:43:28;;;;;;;11.52;5.35;;;2.50;99.90;;;;;;6707718;88;20326;-77
2021/03/02 04:53:29;;;;;;;12.40;5.47;;;2.30;99.90;;;;;;6707562;88;20811;-77
2021/03/02 05:03:29;;;;;;;11.73;5.70;;;2.30;99.90;;;;;;6711576;88;20564;-79
2021/03/02 05:13:30;;;;;;;13.40;6.05;;;2.20;99.90;;;;;;6712806;88;20712;-78
2021/03/02 05:23:30;;;;;;;11.63;5.65;;;2.10;99.90;;;;;;6707942;88;20260;-78
2021/03/02 05:33:31;;;;;;;13.80;6.25;;;2.10;99.90;;;;;;6714203;88;20209;-77
2021/03/02 05:43:31;;;;;;;15.70;6.57;;;2.30;99.90;;;;;;6713036;88;20208;-77
2021/03/02 05:53:33;;;;;;;16.25;7.20;;;2.30;99.90;;;;;;6712286;88;20198;-77
2021/03/02 06:03:36;;;;;;;18.33;7.90;;;2.30;99.90;;;;;;6707477;88;20270;-76
2021/03/02 06:13:36;;;;;;;20.12;8.05;;;2.50;99.90;;;;;;6711239;88;20216;-77
2021/03/02 06:23:48;;;;;;;18.83;8.10;;;2.80;99.90;;;;;;6707703;88;20219;-77
2021/03/02 06:34:08;;;;;;;17.30;7.50;;;2.90;99.90;;;;;;6714019;88;20949;-77
2021/03/02 06:44:13;;;;;;;18.08;7.97;;;2.80;99.90;;;;;;6707041;88;20211;-77
2021/03/02 06:54:17;;;;;;;17.08;7.78;;;2.90;99.90;;;;;;6708652;88;20205;-77
2021/03/02 07:04:19;;;;;;;16.33;7.47;;;3.00;99.90;;;;;;6709048;88;20235;-77
2021/03/02 07:24:31;;;;;;;22.80;8.57;;;3.50;99.90;;;;;;6701324;88;20295;-76
2021/03/02 07:34:32;;;;;;;46.05;11.52;;;4.00;99.90;;;;;;6690996;89;20298;-75
2021/03/02 07:45:00;;;;;;;15.30;6.80;;;4.50;99.90;;;;;;6684056;89;20220;-74
2021/03/02 07:55:21;;;;;;;13.73;6.35;;;5.60;99.90;;;;;;6694846;88;20184;-75
2021/03/02 08:05:30;;;;;;;12.30;5.87;;;6.30;99.90;;;;;;6687230;89;20184;-76
2021/03/02 08:15:37;;;;;;;11.15;5.60;;;7.80;99.90;;;;;;6683555;88;20183;-76
2021/03/02 08:25:38;;;;;;;11.55;5.25;;;9.00;99.90;;;;;;6697634;88;20197;-76
2021/03/02 08:35:41;;;;;;;11.20;5.40;;;9.10;99.90;;;;;;6701487;88;20598;-75
2021/03/02 08:45:54;;;;;;;10.88;5.90;;;9.30;99.90;;;;;;6699792;88;20527;-76
2021/03/02 08:55:55;;;;;;;12.40;5.47;;;9.50;99.90;;;;;;6700290;88;20217;-76
2021/03/02 09:06:12;;;;;;;12.23;5.72;;;10.10;99.90;;;;;;6693955;88;20194;-76
2021/03/02 09:16:48;;;;;;;12.80;6.12;;;10.50;99.90;;;;;;6697539;88;20277;-76
2021/03/02 09:26:51;;;;;;;12.10;6.47;;;10.80;99.90;;;;;;6688429;88;20605;-76
2021/03/02 09:36:52;;;;;;;14.55;6.87;;;11.60;99.90;;;;;;6694245;88;20567;-76
2021/03/02 09:46:56;;;;;;;9.93;5.25;;;11.80;99.90;;;;;;6691411;88;20612;-75
2021/03/02 09:56:58;;;;;;;11.65;5.55;;;11.90;99.90;;;;;;6694526;88;20292;-75
2021/03/02 10:07:12;;;;;;;13.88;7.40;;;12.30;99.70;;;;;;6690306;88;20369;-76
2021/03/02 10:17:12;;;;;;;12.63;5.72;;;13.00;97.80;;;;;;6688234;88;20326;-75
2021/03/02 10:27:18;;;;;;;11.93;5.57;;;13.10;97.30;;;;;;6688222;88;20247;-76
2021/03/02 10:37:19;;;;;;;13.23;6.30;;;13.60;95.50;;;;;;6687024;88;20323;-77
2021/03/02 10:47:20;;;;;;;26.65;11.93;;;13.90;93.50;;;;;;6695499;88;20276;-77
2021/03/02 10:57:20;;;;;;;11.95;6.40;;;14.40;91.80;;;;;;6686872;88;20183;-75
2021/03/02 11:07:21;;;;;;;75.03;38.05;;;14.30;90.50;;;;;;6691299;88;20208;-75
2021/03/02 11:17:22;;;;;;;18.27;9.05;;;14.90;89.20;;;;;;6697868;88;20199;-75
2021/03/02 11:27:22;;;;;;;27.17;13.23;;;15.20;84.70;;;;;;6694571;88;20228;-74
2021/03/02 11:37:23;;;;;;;30.17;16.98;;;15.30;84.70;;;;;;6687857;88;20667;-75
2021/03/02 11:47:23;;;;;;;13.23;6.90;;;16.50;79.50;;;;;;6684724;88;20200;-75
2021/03/02 11:57:24;;;;;;;10.27;5.95;;;16.10;76.70;;;;;;6681854;88;20296;-75
2021/03/02 12:07:24;;;;;;;13.45;6.62;;;16.40;75.20;;;;;;6673840;88;20186;-75
2021/03/02 12:17:25;;;;;;;11.55;7.00;;;16.50;74.20;;;;;;6682586;88;20187;-75
2021/03/02 12:27:26;;;;;;;12.07;6.05;;;17.20;73.20;;;;;;6681460;88;20278;-75
2021/03/02 12:37:26;;;;;;;12.70;6.40;;;17.60;71.50;;;;;;6684283;88;20198;-75
2021/03/02 12:47:27;;;;;;;14.60;6.68;;;17.30;70.30;;;;;;6686872;88;20546;-75
2021/03/02 12:57:27;;;;;;;13.30;6.55;;;19.50;66.10;;;;;;6682409;88;20253;-75
2021/03/02 13:07:28;;;;;;;12.35;6.43;;;20.60;62.00;;;;;;6678753;88;20202;-75
2021/03/02 13:18:10;;;;;;;14.73;7.40;;;22.10;58.40;;;;;;6686433;77;20219;-77
2021/03/02 13:28:13;;;;;;;13.07;6.70;;;22.00;56.00;;;;;;6724943;88;20184;-77
2021/03/02 13:38:14;;;;;;;13.20;6.70;;;22.20;55.00;;;;;;6727283;88;20753;-78
2021/03/02 13:48:15;;;;;;;13.48;7.20;;;21.80;55.00;;;;;;6727538;88;20224;-77
2021/03/02 13:58:16;;;;;;;12.35;6.55;;;22.40;53.20;;;;;;6723038;88;20321;-79
2021/03/02 14:08:18;;;;;;;14.50;6.60;;;21.30;56.20;;;;;;6722215;88;20193;-78
2021/03/02 14:18:22;;;;;;;14.38;6.68;;;21.80;54.60;;;;;;6734283;88;20193;-78
2021/03/02 14:28:24;;;;;;;14.43;6.45;;;22.40;54.30;;;;;;6729611;88;20194;-78
2021/03/02 14:38:25;;;;;;;13.52;6.47;;;21.10;54.80;;;;;;6736050;88;20233;-77
2021/03/02 14:48:31;;;;;;;13.70;6.53;;;20.40;56.00;;;;;;6736698;88;20239;-78
2021/03/02 14:58:34;;;;;;;14.63;6.50;;;19.90;57.30;;;;;;6739649;88;20227;-79
2021/03/02 15:08:35;;;;;;;15.60;6.68;;;19.60;58.10;;;;;;6731528;88;20237;-78
2021/03/02 15:18:36;;;;;;;17.45;6.50;;;19.50;58.20;;;;;;6731919;88;20229;-78
2021/03/02 15:28:43;;;;;;;15.73;6.63;;;19.30;59.20;;;;;;6722588;88;20247;-78
2021/03/02 15:38:44;;;;;;;14.85;5.95;;;18.90;60.20;;;;;;6729911;88;20605;-79
2021/03/02 15:48:45;;;;;;;14.13;6.00;;;19.00;60.90;;;;;;6734402;88;20275;-78
2021/03/02 15:58:45;;;;;;;14.73;6.50;;;18.70;60.70;;;;;;6728323;88;20218;-77
2021/03/02 16:08:54;;;;;;;18.73;6.10;;;18.10;62.00;;;;;;6739192;88;20267;-78
2021/03/02 16:18:56;;;;;;;16.00;6.28;;;17.60;62.40;;;;;;6722507;88;20331;-77
2021/03/02 16:28:58;;;;;;;15.85;6.53;;;17.40;62.80;;;;;;6722876;88;20180;-77
2021/03/02 16:39:00;;;;;;;15.40;6.40;;;17.10;64.00;;;;;;6725557;88;20189;-78
2021/03/02 16:49:11;;;;;;;13.88;6.07;;;16.70;64.90;;;;;;6727726;88;20669;-78
2021/03/02 16:59:11;;;;;;;13.48;6.15;;;16.50;66.30;;;;;;6707346;88;20237;-78
2021/03/02 17:09:16;;;;;;;47.17;24.20;;;16.10;67.40;;;;;;6707046;88;20674;-78
2021/03/02 17:19:17;;;;;;;15.30;7.50;;;15.70;68.70;;;;;;6721080;88;20256;-79
2021/03/02 17:29:18;;;;;;;29.05;14.45;;;15.30;70.20;;;;;;6712176;88;20190;-77
2021/03/02 17:39:22;;;;;;;18.60;7.45;;;15.00;71.60;;;;;;6714007;88;20452;-78
2021/03/02 17:49:23;;;;;;;22.67;6.97;;;14.60;72.90;;;;;;6724789;88;20219;-78
2021/03/02 17:59:23;;;;;;;16.17;6.37;;;14.10;74.80;;;;;;6723495;88;20220;-78
2021/03/02 18:09:24;;;;;;;15.98;6.72;;;13.80;76.60;;;;;;6722000;88;20650;-77
2021/03/02 18:19:24;;;;;;;14.87;6.53;;;13.60;78.10;;;;;;6736007;88;20178;-77
2021/03/02 18:29:25;;;;;;;17.80;5.93;;;13.30;80.20;;;;;;6739425;88;20226;-78
2021/03/02 18:39:26;;;;;;;19.65;6.82;;;13.30;80.80;;;;;;6729173;88;20205;-79
2021/03/02 18:49:27;;;;;;;16.07;6.27;;;13.10;81.90;;;;;;6728023;88;20672;-77
2021/03/02 18:59:27;;;;;;;14.57;6.80;;;12.90;83.00;;;;;;6729058;88;20492;-78
2021/03/02 19:09:28;;;;;;;15.60;6.43;;;12.60;84.50;;;;;;6708219;88;20205;-77
2021/03/02 19:19:28;;;;;;;16.60;6.85;;;12.30;87.10;;;;;;6718063;88;20355;-77
2021/03/02 19:29:29;;;;;;;13.50;6.55;;;12.20;88.90;;;;;;6731679;88;20201;-77
2021/03/02 19:39:29;;;;;;;18.08;6.47;;;12.20;90.00;;;;;;6729667;88;20210;-77
2021/03/02 19:49:30;;;;;;;15.55;5.50;;;12.00;90.90;;;;;;6731839;88;20283;-77
2021/03/02 19:59:30;;;;;;;17.92;5.95;;;12.00;91.60;;;;;;6721004;88;20194;-77
2021/03/02 20:09:31;;;;;;;15.33;6.17;;;11.80;92.60;;;;;;6723299;88;20205;-77
2021/03/02 20:19:32;;;;;;;12.63;6.40;;;11.70;94.50;;;;;;6714873;88;20582;-79
2021/03/02 20:29:33;;;;;;;16.02;6.65;;;11.50;96.60;;;;;;6709274;88;20220;-80
2021/03/02 20:39:33;;;;;;;14.68;6.22;;;11.30;98.70;;;;;;6708361;88;20368;-77
2021/03/02 20:49:34;;;;;;;13.85;6.12;;;11.20;99.90;;;;;;6725272;88;20388;-78
2021/03/02 20:59:35;;;;;;;12.50;6.30;;;11.40;99.90;;;;;;6723834;88;20215;-79
2021/03/02 21:09:35;;;;;;;14.77;6.50;;;11.40;99.90;;;;;;6745919;76;20617;-73
2021/03/02 21:19:36;;;;;;;16.17;6.70;;;11.40;99.90;;;;;;6741085;88;20207;-74
2021/03/02 21:29:36;;;;;;;15.77;6.55;;;11.20;99.90;;;;;;6744677;88;20211;-76
2021/03/02 21:39:37;;;;;;;15.18;7.22;;;11.00;99.90;;;;;;6743303;88;20598;-75
2021/03/02 21:49:37;;;;;;;14.80;6.55;;;10.90;99.90;;;;;;6741703;88;20366;-74
2021/03/02 21:59:38;;;;;;;17.55;7.07;;;10.80;99.90;;;;;;6742237;88;20205;-74
2021/03/02 22:09:40;;;;;;;20.93;8.07;;;10.70;99.90;;;;;;6746246;88;20206;-75
2021/03/02 22:19:40;;;;;;;16.52;7.30;;;10.50;99.90;;;;;;6729532;88;20550;-74
2021/03/02 22:29:41;;;;;;;22.02;8.13;;;10.40;99.90;;;;;;6728833;88;20206;-75
2021/03/02 22:39:41;;;;;;;21.12;8.00;;;10.40;99.90;;;;;;6737844;88;20270;-75
2021/03/02 22:49:42;;;;;;;18.17;7.47;;;10.30;99.90;;;;;;6738092;88;20236;-76
2021/03/02 22:59:42;;;;;;;18.80;8.13;;;10.30;99.90;;;;;;6732921;88;20707;-75
2021/03/02 23:09:45;;;;;;;16.65;8.13;;;10.20;99.90;;;;;;6728298;88;20215;-76
2021/03/02 23:19:45;;;;;;;21.12;8.00;;;9.70;99.90;;;;;;6746756;88;20636;-75
2021/03/02 23:29:46;;;;;;;19.70;7.90;;;9.40;99.90;;;;;;6750780;88;20189;-75
2021/03/02 23:39:46;;;;;;;21.90;8.27;;;9.50;99.90;;;;;;6747935;88;20280;-75
2021/03/02 23:49:48;;;;;;;19.87;9.05;;;9.40;99.90;;;;;;6750757;88;20177;-76
2021/03/02 23:59:48;;;;;;;20.80;9.32;;;9.20;99.90;;;;;;6750206;88;20205;-75
